createdAt,value
2023-08-19T04:02:31.784Z,3.63
2023-08-19T04:05:07.444Z,4.50
2023-08-19T04:07:40.503Z,3.38
2023-08-19T04:10:12.242Z,3.13
2023-08-19T04:12:44.018Z,3.30
2023-08-19T04:15:15.814Z,3.53
2023-08-19T04:17:49.511Z,3.40
2023-08-19T04:20:21.319Z,3.72
2023-08-19T04:22:53.063Z,3.53
2023-08-19T04:25:24.827Z,3.90
2023-08-19T04:27:56.541Z,3.30
2023-08-19T04:30:29.165Z,3.22
2023-08-19T04:33:04.717Z,3.75
2023-08-19T04:35:36.700Z,3.65
2023-08-19T04:38:08.423Z,3.33
2023-08-19T04:40:40.183Z,3.67
2023-08-19T04:43:11.962Z,3.97
2023-08-19T04:45:43.786Z,3.63
2023-08-19T04:48:16.962Z,3.60
2023-08-19T04:50:48.905Z,3.42
2023-08-19T04:53:20.637Z,3.38
2023-08-19T04:55:58.535Z,3.15
2023-08-19T04:58:30.299Z,3.50
2023-08-19T05:01:02.039Z,2.60
2023-08-19T05:03:35.129Z,3.50
2023-08-19T05:06:06.874Z,3.13
2023-08-19T05:08:38.594Z,3.60
2023-08-19T05:11:10.402Z,3.20
2023-08-19T05:13:42.194Z,2.85
2023-08-19T05:16:14.257Z,2.83
2023-08-19T05:18:51.188Z,3.28
2023-08-19T05:21:22.931Z,2.97
2023-08-19T05:23:54.686Z,2.92
2023-08-19T05:26:26.444Z,3.40
2023-08-19T05:28:58.163Z,2.63
2023-08-19T05:31:30.234Z,3.22
2023-08-19T05:34:03.779Z,3.08
2023-08-19T05:36:35.523Z,2.95
2023-08-19T05:39:07.333Z,2.95
2023-08-19T05:41:39.095Z,2.83
2023-08-19T05:44:10.840Z,2.75
2023-08-19T05:46:42.553Z,2.67
2023-08-19T05:49:15.628Z,2.80
2023-08-19T05:51:47.407Z,2.30
2023-08-19T05:54:19.106Z,2.90
2023-08-19T05:56:50.884Z,2.90
2023-08-19T05:59:22.671Z,2.72
2023-08-19T06:01:54.395Z,3.10
2023-08-19T06:04:27.522Z,2.80
2023-08-19T06:06:59.250Z,2.90
2023-08-19T06:09:31.042Z,2.80
2023-08-19T06:12:02.834Z,2.80
2023-08-19T06:14:34.559Z,3.20
2023-08-19T06:17:06.307Z,3.05
2023-08-19T06:19:39.725Z,3.08
2023-08-19T06:22:11.453Z,2.97
2023-08-19T06:24:43.181Z,2.90
2023-08-19T06:27:14.906Z,3.25
2023-08-19T06:29:46.632Z,3.00
2023-08-19T06:32:19.281Z,3.00
2023-08-19T06:34:52.948Z,2.80
2023-08-19T06:37:26.199Z,3.30
2023-08-19T06:39:59.113Z,2.90
2023-08-19T06:42:30.836Z,2.92
2023-08-19T06:45:02.800Z,2.90
2023-08-19T06:47:37.149Z,3.13
2023-08-19T06:50:12.157Z,3.17
2023-08-19T06:52:44.628Z,3.17
2023-08-19T06:55:17.264Z,3.00
2023-08-19T06:57:52.653Z,3.15
2023-08-19T07:00:24.985Z,3.20
2023-08-19T07:02:56.972Z,3.10
2023-08-19T07:05:30.450Z,2.72
2023-08-19T07:08:02.891Z,3.30
2023-08-19T07:10:35.091Z,3.10
2023-08-19T07:13:07.760Z,3.10
2023-08-19T07:15:40.517Z,3.25
2023-08-19T07:18:13.972Z,2.38
2023-08-19T07:20:47.164Z,2.70
2023-08-19T07:23:18.886Z,3.13
2023-08-19T07:25:51.032Z,3.22
2023-08-19T07:28:23.539Z,2.70
2023-08-19T07:30:55.529Z,2.67
2023-08-19T07:33:30.363Z,2.67
2023-08-19T07:36:03.816Z,2.83
2023-08-19T07:38:35.563Z,2.90
2023-08-19T07:41:07.373Z,3.00
2023-08-19T07:43:39.061Z,2.90
2023-08-19T07:46:10.826Z,2.65
2023-08-19T07:48:42.814Z,3.22
2023-08-19T07:51:15.932Z,3.45
2023-08-19T07:53:47.661Z,3.13
2023-08-19T07:56:19.360Z,2.42
2023-08-19T07:58:51.069Z,3.00
2023-08-19T08:01:22.794Z,2.80
2023-08-19T08:03:54.570Z,2.38
2023-08-19T08:06:29.023Z,2.88
2023-08-19T08:09:00.759Z,2.83
2023-08-19T08:11:32.637Z,2.35
2023-08-19T08:14:04.581Z,2.92
2023-08-19T08:16:36.299Z,2.50
2023-08-19T08:19:08.075Z,3.10
2023-08-19T08:21:41.148Z,2.60
2023-08-19T08:24:12.896Z,2.70
2023-08-19T08:26:44.638Z,2.75
2023-08-19T08:29:17.117Z,2.60
2023-08-19T08:31:49.807Z,2.63
2023-08-19T08:34:21.518Z,2.60
2023-08-19T08:36:54.599Z,2.90
2023-08-19T08:39:26.321Z,3.05
2023-08-19T08:41:58.044Z,3.03
2023-08-19T08:44:29.758Z,2.92
2023-08-19T08:47:01.490Z,2.88
2023-08-19T08:49:33.244Z,2.72
2023-08-19T08:52:07.030Z,2.97
2023-08-19T08:54:38.736Z,2.80
2023-08-19T08:57:10.459Z,2.60
2023-08-19T08:59:42.426Z,2.78
2023-08-19T09:02:14.154Z,2.90
2023-08-19T09:04:45.972Z,3.17
2023-08-19T09:07:21.420Z,3.05
2023-08-19T09:09:53.783Z,2.83
2023-08-19T09:12:25.525Z,2.88
2023-08-19T09:14:59.230Z,3.00
2023-08-19T09:17:31.030Z,2.90
2023-08-19T09:20:03.300Z,2.58
2023-08-19T09:22:36.656Z,2.97
2023-08-19T09:25:09.036Z,3.20
2023-08-19T09:27:41.136Z,2.72
2023-08-19T09:30:14.589Z,2.70
2023-08-19T09:32:46.860Z,3.28
2023-08-19T09:35:18.677Z,3.10
2023-08-19T09:37:51.753Z,3.03
2023-08-19T09:40:23.455Z,3.08
2023-08-19T09:42:55.619Z,3.25
2023-08-19T09:45:28.092Z,3.00
2023-08-19T09:47:59.935Z,3.00
2023-08-19T09:50:31.748Z,3.20
2023-08-19T09:53:07.697Z,3.13
2023-08-19T09:55:39.430Z,3.35
2023-08-19T09:58:11.141Z,3.15
2023-08-19T10:00:42.960Z,3.30
2023-08-19T10:03:14.881Z,3.50
2023-08-19T10:05:49.810Z,3.08
2023-08-19T10:08:23.783Z,3.10
2023-08-19T10:10:58.105Z,2.92
2023-08-19T10:13:30.652Z,3.17
2023-08-19T10:16:02.777Z,3.30
2023-08-19T10:18:36.242Z,2.88
2023-08-19T10:21:09.736Z,3.00
2023-08-19T10:23:44.436Z,3.08
2023-08-19T10:26:16.242Z,3.30
2023-08-19T10:29:03.896Z,3.28
2023-08-19T10:31:35.979Z,3.50
2023-08-19T10:34:11.332Z,3.15
2023-08-19T10:36:43.043Z,2.83
2023-08-19T10:39:19.312Z,3.20
2023-08-19T10:41:51.422Z,3.42
2023-08-19T10:44:23.633Z,3.70
2023-08-19T10:46:55.355Z,3.10
2023-08-19T10:49:27.064Z,3.58
2023-08-19T10:51:59.523Z,3.40
2023-08-19T11:25:14.879Z,3.85
2023-08-19T11:27:46.644Z,4.30
2023-08-19T11:30:18.432Z,4.07
2023-08-19T11:32:50.209Z,4.03
2023-08-19T11:35:22.057Z,4.32
2023-08-19T11:37:53.799Z,4.47
2023-08-19T11:40:34.357Z,4.25
2023-08-19T11:43:06.871Z,4.43
2023-08-19T11:45:38.780Z,3.85
2023-08-19T11:48:13.475Z,4.55
2023-08-19T11:50:46.390Z,4.03
2023-08-19T11:53:27.788Z,3.90
2023-08-19T11:56:00.933Z,4.18
2023-08-19T11:58:41.038Z,4.10
2023-08-19T12:01:12.808Z,4.75
2023-08-19T12:03:44.919Z,4.47
2023-08-19T12:06:16.790Z,4.57
2023-08-19T12:08:48.513Z,4.18
2023-08-19T12:11:25.355Z,4.57
2023-08-19T12:13:57.073Z,4.63
2023-08-19T12:16:28.787Z,4.40
2023-08-19T12:19:00.556Z,4.40
2023-08-19T12:21:32.342Z,4.82
2023-08-19T12:24:04.741Z,5.03
2023-08-19T12:26:37.804Z,5.18
2023-08-19T12:29:09.515Z,5.30
2023-08-19T12:31:41.284Z,5.40
2023-08-19T12:34:14.730Z,5.65
2023-08-19T12:36:46.440Z,5.47
2023-08-19T12:39:18.152Z,5.68
2023-08-19T12:41:51.290Z,5.77
2023-08-19T12:44:23.052Z,5.82
2023-08-19T12:46:54.898Z,5.75
2023-08-19T12:49:26.721Z,6.03
2023-08-19T12:51:58.434Z,5.45
2023-08-19T12:54:30.338Z,6.38
2023-08-19T12:57:03.617Z,6.18
2023-08-19T12:59:35.363Z,5.55
2023-08-19T13:02:07.104Z,6.50
2023-08-19T13:04:38.813Z,5.80
2023-08-19T13:07:10.570Z,5.88
2023-08-19T13:09:42.293Z,6.45
2023-08-19T13:12:15.385Z,6.13
2023-08-19T13:14:47.082Z,5.80
2023-08-19T13:17:18.818Z,6.38
2023-08-19T13:19:50.540Z,6.20
2023-08-19T13:22:22.315Z,5.65
2023-08-19T13:24:54.063Z,10.18
2023-08-19T13:27:27.155Z,6.40
2023-08-19T13:29:58.881Z,6.32
2023-08-19T13:32:30.627Z,6.53
2023-08-19T13:35:02.406Z,9.68
2023-08-19T13:37:34.140Z,11.68
2023-08-19T13:40:07.623Z,6.57
2023-08-19T13:42:40.709Z,6.50
2023-08-19T13:45:12.543Z,6.80
2023-08-19T13:47:44.345Z,6.97
2023-08-19T13:50:16.121Z,6.75
2023-08-19T13:52:47.832Z,5.88
2023-08-19T13:55:19.518Z,8.02
2023-08-19T13:57:52.589Z,6.63
2023-08-19T14:00:24.404Z,6.57
2023-08-19T14:02:56.222Z,6.53
2023-08-19T14:05:28.092Z,6.10
2023-08-19T14:07:59.796Z,6.38
2023-08-19T14:10:31.492Z,6.13
2023-08-19T14:13:04.825Z,5.30
2023-08-19T14:15:36.549Z,5.10
2023-08-19T14:18:08.264Z,5.97
2023-08-19T14:20:39.976Z,5.55
2023-08-19T14:23:11.741Z,5.63
2023-08-19T14:25:43.476Z,5.38
2023-08-19T14:28:16.611Z,5.75
2023-08-19T14:30:48.345Z,5.65
2023-08-19T14:33:20.169Z,6.82
2023-08-19T14:35:51.903Z,7.18
2023-08-19T14:38:23.620Z,5.72
2023-08-19T14:40:55.706Z,6.78
2023-08-19T14:43:28.964Z,6.25
2023-08-19T14:46:00.708Z,5.90
2023-08-19T14:48:32.485Z,6.10
2023-08-19T14:51:04.444Z,5.97
2023-08-19T14:53:36.172Z,6.32
2023-08-19T14:56:07.895Z,5.75
2023-08-19T14:58:40.970Z,5.55
2023-08-19T15:01:12.783Z,4.90
2023-08-19T15:03:44.624Z,5.50
2023-08-19T15:06:16.519Z,5.05
2023-08-19T15:08:48.226Z,4.63
2023-08-19T15:11:19.930Z,4.53
2023-08-19T15:13:53.003Z,4.65
2023-08-19T15:16:24.801Z,4.60
2023-08-19T15:18:56.556Z,4.63
2023-08-19T15:21:28.303Z,4.43
2023-08-19T15:24:00.073Z,4.10
2023-08-19T15:26:31.881Z,4.05
2023-08-19T15:29:05.155Z,4.22
2023-08-19T15:31:36.961Z,3.53
2023-08-19T15:34:08.695Z,3.30
2023-08-19T15:36:40.421Z,3.70
2023-08-19T15:39:12.133Z,3.40
2023-08-19T15:41:43.906Z,3.70
2023-08-19T15:44:17.026Z,8.75
2023-08-19T15:46:48.757Z,3.33
2023-08-19T15:49:20.496Z,3.50
2023-08-19T15:51:52.246Z,3.35
2023-08-19T15:54:24.092Z,3.63
2023-08-19T15:56:55.814Z,3.78
2023-08-19T15:59:28.884Z,4.10
2023-08-19T16:02:00.592Z,3.42
2023-08-19T16:04:32.322Z,2.90
2023-08-19T16:07:04.095Z,4.10
2023-08-19T16:09:35.801Z,3.63
2023-08-19T16:12:07.597Z,5.00
2023-08-19T16:14:40.685Z,4.13
2023-08-19T16:17:12.429Z,3.72
2023-08-19T16:19:44.165Z,3.88
2023-08-19T16:22:15.883Z,3.03
2023-08-19T16:24:47.931Z,3.28
2023-08-19T16:27:19.630Z,3.38
2023-08-19T16:29:53.973Z,3.80
2023-08-19T16:32:25.744Z,3.95
2023-08-19T16:34:57.453Z,3.72
2023-08-19T16:37:29.176Z,3.05
2023-08-19T16:40:00.893Z,3.75
2023-08-19T16:42:32.609Z,3.92
2023-08-19T16:45:06.893Z,5.57
2023-08-19T16:47:38.715Z,3.70
2023-08-19T16:50:10.658Z,8.30
2023-08-19T16:52:42.486Z,4.65
2023-08-19T16:55:14.561Z,3.70
2023-08-19T16:57:46.277Z,9.55
2023-08-19T17:00:19.467Z,4.18
2023-08-19T17:02:51.226Z,4.93
2023-08-19T17:05:23.087Z,4.40
2023-08-19T17:07:54.793Z,5.65
2023-08-19T17:10:27.418Z,4.70
2023-08-19T17:12:59.297Z,7.75
2023-08-19T17:15:32.367Z,4.47
2023-08-19T17:18:04.692Z,11.48
2023-08-19T17:20:36.450Z,4.63
2023-08-19T17:23:08.178Z,2.95
2023-08-19T17:25:40.120Z,3.35
2023-08-19T17:28:11.881Z,4.97
2023-08-19T17:30:44.960Z,3.70
2023-08-19T17:33:16.810Z,3.40
2023-08-19T17:35:48.504Z,3.45
2023-08-19T17:38:20.236Z,3.85
2023-08-19T17:40:57.646Z,3.80
2023-08-19T17:43:30.136Z,4.22
2023-08-19T17:46:03.199Z,3.65
2023-08-19T17:48:34.943Z,3.85
2023-08-19T17:51:06.779Z,3.90
2023-08-19T17:53:38.504Z,3.75
2023-08-19T17:56:10.301Z,4.15
2023-08-19T17:58:42.100Z,6.22
2023-08-19T18:01:15.195Z,7.20
2023-08-19T18:03:46.954Z,5.68
2023-08-19T18:06:19.740Z,3.72
2023-08-19T18:08:51.450Z,4.50
2023-08-19T18:11:23.205Z,5.95
2023-08-19T18:13:54.941Z,4.13
2023-08-19T18:16:28.055Z,3.80
2023-08-19T18:18:59.790Z,4.30
2023-08-19T18:21:31.497Z,3.92
2023-08-19T18:24:03.793Z,3.67
2023-08-19T18:26:35.518Z,3.80
2023-08-19T18:29:07.294Z,4.22
2023-08-19T18:31:40.382Z,3.85
2023-08-19T18:34:12.096Z,3.90
2023-08-19T18:36:43.842Z,4.00
2023-08-19T18:39:15.931Z,3.92
2023-08-19T18:41:47.647Z,4.07
2023-08-19T18:44:19.366Z,4.35
2023-08-19T18:46:52.457Z,4.10
2023-08-19T18:49:24.182Z,4.78
2023-08-19T18:51:56.027Z,4.00
2023-08-19T18:54:27.746Z,4.30
2023-08-19T18:56:59.446Z,4.72
2023-08-19T18:59:31.176Z,4.55
2023-08-19T19:02:04.328Z,5.20
2023-08-19T19:04:36.066Z,5.68
2023-08-19T19:07:07.768Z,5.35
2023-08-19T19:09:39.480Z,5.07
2023-08-19T19:12:11.281Z,5.60
2023-08-19T19:14:43.006Z,5.82
2023-08-19T19:17:19.607Z,5.70
2023-08-19T19:19:51.441Z,6.00
2023-08-19T19:22:23.183Z,6.53
2023-08-19T19:24:54.924Z,6.18
2023-08-19T19:27:26.658Z,6.05
2023-08-19T19:29:58.404Z,6.32
2023-08-19T19:32:31.504Z,6.25
2023-08-19T19:35:03.316Z,6.45
2023-08-19T19:37:35.663Z,6.35
2023-08-19T19:40:08.272Z,7.28
2023-08-19T19:42:40.038Z,6.18
2023-08-19T19:45:12.264Z,6.15
2023-08-19T19:47:45.379Z,5.90
2023-08-19T19:50:17.489Z,6.25
2023-08-19T19:52:49.249Z,5.82
2023-08-19T19:55:21.094Z,6.47
2023-08-19T19:57:52.912Z,6.72
2023-08-19T20:00:25.132Z,7.57
2023-08-19T20:02:59.065Z,6.70
2023-08-19T20:05:30.819Z,7.10
2023-08-19T20:08:02.521Z,6.93
2023-08-19T20:10:34.813Z,8.07
2023-08-19T20:13:06.565Z,8.68
2023-08-19T20:15:38.270Z,8.35
2023-08-19T20:18:11.353Z,8.73
2023-08-19T20:20:43.077Z,8.60
2023-08-19T20:23:15.134Z,7.20
2023-08-19T20:25:46.856Z,7.47
2023-08-19T20:28:18.915Z,6.97
2023-08-19T20:30:51.000Z,6.90
2023-08-19T20:33:24.059Z,6.55
2023-08-19T20:35:56.651Z,7.43
2023-08-19T20:38:28.372Z,7.63
2023-08-19T20:41:00.101Z,7.90
2023-08-19T20:43:35.274Z,7.90
2023-08-19T20:46:07.034Z,8.45
2023-08-19T20:48:40.148Z,8.85
2023-08-19T20:51:11.831Z,9.13
2023-08-19T20:53:43.542Z,9.10
2023-08-19T20:56:15.242Z,8.85
2023-08-19T20:58:46.962Z,8.43
2023-08-19T21:01:19.023Z,7.13
2023-08-19T21:03:52.140Z,6.97
2023-08-19T21:06:23.904Z,7.15
2023-08-19T21:08:55.640Z,7.22
2023-08-19T21:11:27.721Z,7.57
2023-08-19T21:13:59.405Z,7.50
2023-08-19T21:16:31.137Z,6.50
2023-08-19T21:19:04.548Z,6.85
2023-08-19T21:21:36.260Z,6.78
2023-08-19T21:24:08.360Z,6.70
2023-08-19T21:26:40.052Z,7.22
2023-08-19T21:29:12.098Z,6.93
2023-08-19T21:31:43.940Z,6.38
2023-08-19T21:34:17.066Z,6.50
2023-08-19T21:36:48.780Z,6.80
2023-08-19T21:39:20.846Z,7.28
2023-08-19T21:41:52.551Z,6.78
2023-08-19T21:44:24.323Z,7.13
2023-08-19T21:46:56.026Z,7.20
2023-08-19T21:49:29.435Z,7.82
2023-08-19T21:52:01.162Z,8.02
2023-08-19T21:54:32.882Z,8.90
2023-08-19T21:57:04.848Z,8.00
2023-08-19T21:59:37.180Z,8.52
